Time;durP1;ratioP1;P1;durP2;ratioP2;P2;SDS_P1;SDS_P2;PMS_P1;PMS_P2;Temp;Humidity;BMP_temperature;BMP_pressure;BME280_temperature;BME280_humidity;BME280_pressure;Samples;Min_cycle;Max_cycle;Signal;HPM_P1;HPM_P2
2021/11/23 00:00:33;;;;;;;2.60;2.50;;;;;;;-2.70;100.00;102540.62;4388448;32;20076;-76
2021/11/23 00:02:58;;;;;;;4.25;4.05;;;;;;;-1.96;100.00;102656.09;4393614;32;20065;-76
2021/11/23 00:05:23;;;;;;;2.40;2.30;;;;;;;-1.97;100.00;102656.06;4381271;32;20445;-77
2021/11/23 00:07:49;;;;;;;2.70;2.60;;;;;;;-3.92;100.00;102358.63;4386133;32;20469;-76
2021/11/23 00:10:14;;;;;;;2.60;2.50;;;;;;;-2.02;100.00;102651.62;4380380;32;20127;-77
2021/11/23 00:12:40;;;;;;;2.40;2.30;;;;;;;-2.24;100.00;102618.34;4385324;32;20079;-76
2021/11/23 00:15:05;;;;;;;4.47;4.28;;;;;;;-3.32;100.00;102437.59;4378928;32;20120;-76
2021/11/23 00:17:31;;;;;;;2.40;2.30;;;;;;;-2.08;100.00;102646.31;4382224;32;20504;-77
2021/11/23 00:19:56;;;;;;;4.35;4.15;;;;;;;-2.44;100.00;102585.16;4381111;32;20061;-77
2021/11/23 00:22:21;;;;;;;2.45;2.35;;;;;;;-2.09;100.00;102644.53;4367810;32;20072;-77
2021/11/23 00:24:47;;;;;;;2.85;2.75;;;;;;;-2.10;100.00;102636.81;4385623;32;20073;-76
2021/11/23 00:27:12;;;;;;;2.20;2.10;;;;;;;-2.10;100.00;102645.38;4368033;32;20083;-78
2021/11/23 00:29:38;;;;;;;2.45;2.35;;;;;;;-2.13;100.00;102640.13;4385755;32;20075;-76
2021/11/23 00:32:03;;;;;;;4.35;4.15;;;;;;;-2.15;100.00;102649.50;4379130;32;20064;-76
2021/11/23 00:34:29;;;;;;;2.42;2.33;;;;;;;-2.16;100.00;102649.47;4371876;32;20080;-76
2021/11/23 00:36:55;;;;;;;3.72;3.53;;;;;;;-2.15;100.00;102651.19;4385776;32;20449;-76
2021/11/23 00:39:20;;;;;;;2.85;2.75;;;;;;;-2.17;100.00;102651.16;4380686;32;20133;-76
2021/11/23 00:41:48;;;;;;;22.55;2.90;;;;;;;-3.76;100.00;102370.28;4387099;32;20634;-76
2021/11/23 00:44:15;;;;;;;2.80;2.70;;;;;;;-2.56;100.00;102577.06;4380081;32;20073;-76
2021/11/23 00:46:40;;;;;;;3.78;3.55;;;;;;;-2.22;100.00;102643.28;4394861;32;20458;-76
2021/11/23 00:49:05;;;;;;;3.55;3.45;;;;;;;-2.22;100.00;102634.72;4383930;32;20065;-76
2021/11/23 00:51:31;;;;;;;2.87;2.70;;;;;;;-2.22;100.00;102645.88;4359605;32;20145;-76
2021/11/23 00:53:56;;;;;;;3.40;3.30;;;;;;;-2.32;100.00;102627.53;4380669;32;20068;-77
2021/11/23 00:56:21;;;;;;;2.47;2.37;;;;;;;-2.16;100.00;102639.19;4380364;32;20163;-76
2021/11/23 00:58:47;;;;;;;2.60;2.50;;;;;;;-2.17;100.00;102643.44;4386749;32;20103;-76
2021/11/23 01:01:12;;;;;;;2.30;2.20;;;;;;;-2.21;100.00;102639.00;4368919;32;20453;-77
2021/11/23 01:03:37;;;;;;;2.30;2.20;;;;;;;-2.64;100.00;102574.25;4383215;32;20096;-76
2021/11/23 01:06:03;;;;;;;4.00;3.83;;;;;;;-2.26;100.00;102635.44;4382448;32;20186;-76
2021/11/23 01:08:28;;;;;;;2.35;2.25;;;;;;;-2.51;100.00;102598.63;4383801;32;20072;-76
2021/11/23 01:10:55;;;;;;;3.17;3.08;;;;;;;-4.02;100.00;102329.22;4377641;32;20173;-76
2021/11/23 01:13:20;;;;;;;2.80;2.70;;;;;;;-2.26;100.00;102627.72;4379624;32;20141;-76
2021/11/23 01:15:46;;;;;;;2.37;2.28;;;;;;;-3.07;100.00;102495.75;4384311;32;20159;-77
2021/11/23 01:18:11;;;;;;;2.40;2.30;;;;;;;-2.30;100.00;102634.47;4375555;32;20073;-76
2021/11/23 01:20:37;;;;;;;2.60;2.50;;;;;;;-2.29;100.00;102632.75;4389028;32;20892;-76
2021/11/23 01:23:02;;;;;;;4.30;4.10;;;;;;;-3.47;100.00;102432.84;4380894;32;21036;-76
2021/11/23 01:25:28;;;;;;;2.25;2.15;;;;;;;-6.44;100.00;101979.37;4391851;32;20057;-77
2021/11/23 01:27:53;;;;;;;3.87;3.67;;;;;;;-3.33;100.00;102442.69;4366587;32;20075;-77
2021/11/23 01:30:18;;;;;;;2.50;2.40;;;;;;;-2.23;100.00;102617.53;4379391;32;21845;-76
2021/11/23 01:32:44;;;;;;;2.30;2.20;;;;;;;-2.17;100.00;102629.72;4371539;32;20730;-77
2021/11/23 01:35:12;;;;;;;3.85;3.65;;;;;;;-2.09;100.00;102630.81;4366063;32;20244;-76
2021/11/23 01:37:37;;;;;;;2.30;2.20;;;;;;;-2.02;100.00;102623.34;4385525;32;20064;-77
2021/11/23 01:40:03;;;;;;;2.33;2.22;;;;;;;-1.93;100.00;102621.88;4373928;32;20104;-76
2021/11/23 01:42:29;;;;;;;2.62;2.53;;;;;;;-1.97;100.00;102594.31;4386655;32;20774;-77
2021/11/23 01:44:54;;;;;;;2.50;2.40;;;;;;;-3.16;100.00;102386.75;4391883;32;20096;-77
2021/11/23 01:47:20;;;;;;;2.40;2.30;;;;;;;-1.71;100.00;102620.81;4398480;32;20773;-76
2021/11/23 01:49:45;;;;;;;2.70;2.60;;;;;;;-1.65;100.00;102614.13;4395755;32;20072;-77
2021/11/23 01:52:11;;;;;;;5.22;3.58;;;;;;;-1.63;100.00;102615.06;4368817;32;20161;-77
2021/11/23 01:54:36;;;;;;;2.87;2.70;;;;;;;-1.61;100.00;102628.84;4396203;32;20065;-77
2021/11/23 01:57:02;;;;;;;5.03;4.82;;;;;;;-1.63;100.00;102617.63;4383000;32;20081;-76
2021/11/23 01:59:27;;;;;;;15.50;14.75;;;;;;;-2.07;100.00;102550.28;4385381;32;20216;-77
2021/11/23 02:01:53;;;;;;;3.08;2.97;;;;;;;-1.72;100.00;102613.94;4330132;32;20154;-77
2021/11/23 02:04:18;;;;;;;2.83;2.72;;;;;;;-1.79;100.00;102615.44;4396614;32;20073;-77
2021/11/23 02:06:43;;;;;;;2.42;2.33;;;;;;;-2.88;100.00;102463.84;4384669;32;20126;-77
2021/11/23 02:09:09;;;;;;;3.83;3.62;;;;;;;-1.90;100.00;102617.69;4379921;32;20087;-76
2021/11/23 02:11:34;;;;;;;2.47;2.37;;;;;;;-2.12;100.00;102597.31;4384474;32;20081;-77
2021/11/23 02:13:59;;;;;;;4.28;4.07;;;;;;;-1.96;100.00;102626.94;4382309;32;20107;-76
2021/11/23 02:16:25;;;;;;;2.50;2.40;;;;;;;-2.21;100.00;102592.72;4391341;32;20079;-76
2021/11/23 02:18:51;;;;;;;2.50;2.40;;;;;;;-2.05;100.00;102628.38;4389248;32;20642;-76
2021/11/23 02:21:17;;;;;;;2.50;2.40;;;;;;;-2.09;100.00;102631.69;4367678;32;21105;-75
2021/11/23 02:23:42;;;;;;;2.70;2.60;;;;;;;-2.11;100.00;102635.91;4398918;32;20212;-77
2021/11/23 02:26:07;;;;;;;3.15;3.05;;;;;;;-2.15;100.00;102628.06;4363233;32;20284;-76
2021/11/23 02:28:33;;;;;;;2.45;2.35;;;;;;;-2.18;100.00;102635.69;4385147;32;20068;-76
2021/11/23 02:30:59;;;;;;;4.05;3.85;;;;;;;-2.23;100.00;102638.09;4393526;32;20077;-75
2021/11/23 02:33:25;;;;;;;2.40;2.30;;;;;;;-2.25;100.00;102640.59;4364423;32;20069;-76
2021/11/23 02:35:52;;;;;;;2.53;2.42;;;;;;;-2.79;100.00;102542.91;4398486;32;20166;-76
2021/11/23 02:38:18;;;;;;;2.40;2.30;;;;;;;-2.29;100.00;102635.31;4377820;32;20195;-76
2021/11/23 02:40:44;;;;;;;2.30;2.20;;;;;;;-2.34;100.00;102626.63;4400405;32;20092;-76
2021/11/23 02:43:09;;;;;;;3.00;2.90;;;;;;;-2.72;100.00;102564.56;4359439;32;20439;-76
2021/11/23 02:45:34;;;;;;;2.70;2.60;;;;;;;-2.37;100.00;102635.06;4380939;32;20084;-76
2021/11/23 02:48:00;;;;;;;4.25;4.05;;;;;;;-2.57;100.00;102606.16;4379811;32;20100;-76
2021/11/23 02:50:26;;;;;;;3.10;2.90;;;;;;;-2.41;100.00;102634.13;4381051;32;20140;-76
2021/11/23 02:52:53;;;;;;;2.87;2.78;;;;;;;-2.45;100.00;102624.53;4381939;32;20120;-77
2021/11/23 02:55:20;;;;;;;2.50;2.40;;;;;;;-3.12;100.00;102537.53;4383055;32;20446;-76
2021/11/23 02:57:45;;;;;;;2.35;2.25;;;;;;;-3.15;100.00;102525.44;4394834;32;20088;-76
2021/11/23 03:00:16;;;;;;;2.78;2.67;;;;;;;-2.48;100.00;102624.47;4368330;32;20446;-76
2021/11/23 03:02:43;;;;;;;2.30;2.20;;;;;;;-3.65;100.00;102461.31;4382717;32;20858;-76
2021/11/23 03:05:08;;;;;;;3.97;3.80;;;;;;;-2.55;100.00;102624.19;4367363;32;20502;-76
2021/11/23 03:07:34;;;;;;;2.40;2.30;;;;;;;-2.83;100.00;102585.63;4370764;32;20073;-76
2021/11/23 03:09:59;;;;;;;3.83;3.70;;;;;;;-2.84;100.00;102588.12;4379791;32;20127;-75
2021/11/23 03:12:25;;;;;;;2.65;2.55;;;;;;;-3.01;100.00;102556.72;4380780;32;20532;-76
2021/11/23 03:14:51;;;;;;;2.55;2.45;;;;;;;-2.64;100.00;102622.22;4383689;32;20057;-76
2021/11/23 03:17:17;;;;;;;2.45;2.35;;;;;;;-2.65;100.00;102618.75;4366439;32;20093;-76
2021/11/23 03:19:43;;;;;;;2.70;2.60;;;;;;;-2.67;100.00;102619.53;4386366;32;20597;-75
2021/11/23 03:22:08;;;;;;;3.62;3.53;;;;;;;-2.92;100.00;102584.44;4382614;32;20191;-76
2021/11/23 03:24:34;;;;;;;2.40;2.30;;;;;;;-2.67;100.00;102624.66;4386889;32;20604;-76
2021/11/23 03:26:59;;;;;;;5.37;5.05;;;;;;;-2.71;100.00;102644.25;4381702;32;20071;-77
2021/11/23 03:29:25;;;;;;;2.40;2.30;;;;;;;-3.50;100.00;102472.94;4383359;32;20103;-76
2021/11/23 03:31:50;;;;;;;2.60;2.50;;;;;;;-2.83;100.00;102587.31;4382684;32;20088;-76
2021/11/23 03:34:15;;;;;;;2.20;2.10;;;;;;;-2.67;100.00;102616.94;4364314;32;20088;-77
2021/11/23 03:36:41;;;;;;;2.50;2.40;;;;;;;-3.06;100.00;102564.28;4385958;32;20092;-76
2021/11/23 03:39:07;;;;;;;2.28;2.17;;;;;;;-2.92;100.00;102631.53;4390979;32;20123;-76
2021/11/23 03:41:32;;;;;;;2.42;2.33;;;;;;;-3.19;100.00;102535.56;4387704;32;20064;-76
2021/11/23 03:43:58;;;;;;;2.30;2.20;;;;;;;-3.76;100.00;102438.66;4388123;32;20147;-76
2021/11/23 03:46:23;;;;;;;2.47;2.37;;;;;;;-2.69;100.00;102637.44;4380104;32;20065;-77
2021/11/23 03:48:48;;;;;;;2.55;2.45;;;;;;;-2.71;100.00;102613.41;4393058;32;20881;-76
2021/11/23 03:51:14;;;;;;;2.70;2.60;;;;;;;-2.68;100.00;102618.66;4380327;32;20135;-77
2021/11/23 03:53:39;;;;;;;2.30;2.20;;;;;;;-3.09;100.00;102550.47;4368176;32;20598;-77
2021/11/23 03:56:05;;;;;;;2.20;2.10;;;;;;;-2.86;100.00;102575.25;4387709;32;20151;-77
2021/11/23 03:58:30;;;;;;;2.30;2.20;;;;;;;-3.00;100.00;102535.37;4380598;32;20705;-77
2021/11/23 04:00:55;;;;;;;2.28;2.17;;;;;;;-2.59;100.00;102612.94;4385399;32;20322;-77
2021/11/23 04:03:21;;;;;;;2.30;2.20;;;;;;;-3.62;100.00;102434.88;4373523;32;20077;-77
2021/11/23 04:05:46;;;;;;;2.42;2.33;;;;;;;-4.42;100.00;102299.66;4404335;32;20084;-77
2021/11/23 04:08:11;;;;;;;2.20;2.10;;;;;;;-2.60;100.00;102598.34;4374429;32;20072;-77
2021/11/23 04:10:37;;;;;;;2.50;2.40;;;;;;;-2.61;100.00;102606.88;4385848;32;20148;-77
2021/11/23 04:13:03;;;;;;;2.40;2.30;;;;;;;-2.69;100.00;102588.63;4391351;32;20080;-77
2021/11/23 04:15:28;;;;;;;2.78;2.62;;;;;;;-2.88;100.00;102548.63;4391787;32;20083;-76
2021/11/23 04:17:53;;;;;;;2.50;2.40;;;;;;;-3.65;100.00;102422.84;4388155;32;20095;-76
2021/11/23 04:20:19;;;;;;;2.30;2.20;;;;;;;-2.42;100.00;102621.22;4385980;32;20211;-76
2021/11/23 04:22:44;;;;;;;2.50;2.40;;;;;;;-2.73;100.00;102560.22;4368727;32;20077;-76
2021/11/23 04:25:10;;;;;;;3.20;3.10;;;;;;;-2.26;100.00;102620.00;4381454;32;20425;-76
2021/11/23 04:27:37;;;;;;;2.70;2.60;;;;;;;-2.55;100.00;102550.53;4373514;32;20108;-76
2021/11/23 04:30:04;;;;;;;2.40;2.30;;;;;;;-2.96;100.00;102472.12;4386876;32;20085;-76
2021/11/23 04:32:29;;;;;;;2.15;2.05;;;;;;;-2.04;100.00;102611.25;4376072;32;20374;-76
2021/11/23 04:34:54;;;;;;;2.87;2.72;;;;;;;-1.99;100.00;102609.69;4390167;32;20105;-76
2021/11/23 04:37:20;;;;;;;2.40;2.30;;;;;;;-2.01;100.00;102598.47;4386089;32;20084;-76
2021/11/23 04:39:45;;;;;;;2.37;2.28;;;;;;;-2.69;100.00;102456.69;4388533;32;20072;-76
2021/11/23 04:42:11;;;;;;;2.75;2.65;;;;;;;-1.74;100.00;102590.72;4388161;32;20070;-76
2021/11/23 04:44:36;;;;;;;2.10;2.00;;;;;;;-1.80;100.00;102577.69;4386480;32;20619;-77
2021/11/23 04:47:01;;;;;;;4.62;4.43;;;;;;;-1.63;100.00;102607.31;4370183;32;20107;-77
2021/11/23 04:49:27;;;;;;;2.33;2.22;;;;;;;-2.35;100.00;102475.72;4380196;32;20645;-77
2021/11/23 04:51:52;;;;;;;3.08;2.95;;;;;;;-1.55;100.00;102604.13;4362718;32;20192;-77
2021/11/23 04:54:17;;;;;;;2.40;2.30;;;;;;;-2.16;100.00;102502.88;4369076;32;20558;-77
2021/11/23 04:56:43;;;;;;;2.35;2.25;;;;;;;-1.48;100.00;102611.19;4378077;32;20119;-76
2021/11/23 04:59:09;;;;;;;3.70;3.58;;;;;;;-2.67;100.00;102383.09;4368077;32;20142;-76
2021/11/23 05:01:34;;;;;;;2.50;2.40;;;;;;;-1.45;100.00;102599.25;4372316;32;20661;-76
2021/11/23 05:03:59;;;;;;;3.67;3.55;;;;;;;-1.42;100.00;102611.38;4379016;32;20084;-78
2021/11/23 05:06:25;;;;;;;2.40;2.30;;;;;;;-1.43;100.00;102602.75;4399813;32;20622;-77
2021/11/23 05:08:50;;;;;;;2.87;2.78;;;;;;;-1.89;100.00;102513.94;4379531;32;20083;-78
2021/11/23 05:11:17;;;;;;;3.12;3.00;;;;;;;-1.60;100.00;102565.37;4364837;32;20100;-76
2021/11/23 05:13:43;;;;;;;2.30;2.20;;;;;;;-5.34;100.00;101962.78;4391854;32;20169;-77
2021/11/23 05:16:09;;;;;;;3.70;3.60;;;;;;;-1.30;100.00;102601.41;4361061;32;20311;-76
2021/11/23 05:18:34;;;;;;;2.83;2.72;;;;;;;-1.31;100.00;102603.94;4385766;32;20773;-76
2021/11/23 05:20:59;;;;;;;3.90;3.75;;;;;;;-1.31;100.00;102599.63;4399461;32;20129;-76
2021/11/23 05:23:25;;;;;;;2.50;2.40;;;;;;;-1.26;100.00;102598.06;4388996;32;20069;-76
2021/11/23 05:25:50;;;;;;;2.85;2.75;;;;;;;-1.80;100.00;102500.47;4403172;32;20084;-77
2021/11/23 05:28:16;;;;;;;2.60;2.50;;;;;;;-1.12;100.00;102607.88;4369276;32;20057;-76
2021/11/23 05:30:41;;;;;;;2.37;2.28;;;;;;;-3.57;100.00;102189.56;4396624;32;20591;-76
2021/11/23 05:33:07;;;;;;;4.78;4.57;;;;;;;-1.04;100.00;102611.53;4380760;32;20100;-74
2021/11/23 05:35:32;;;;;;;2.50;2.40;;;;;;;-4.79;100.00;102045.62;4382904;32;20494;-76
2021/11/23 05:37:57;;;;;;;4.10;3.90;;;;;;;-2.43;100.00;102370.94;4358850;32;20089;-77
2021/11/23 05:40:23;;;;;;;2.60;2.50;;;;;;;-1.71;100.00;102467.25;4388254;32;20070;-76
2021/11/23 05:42:48;;;;;;;2.30;2.20;;;;;;;-0.88;100.00;102611.09;4371378;32;20179;-78
2021/11/23 05:45:14;;;;;;;2.40;2.30;;;;;;;-1.53;100.00;102496.91;4364102;32;20084;-77
2021/11/23 05:47:40;;;;;;;2.80;2.70;;;;;;;-0.84;100.00;102614.66;4379110;32;20060;-76
2021/11/23 05:50:06;;;;;;;4.65;4.45;;;;;;;-0.82;100.00;102606.09;4390677;32;20216;-77
2021/11/23 05:52:31;;;;;;;2.40;2.30;;;;;;;-0.91;100.00;102599.84;4384563;32;20095;-77
2021/11/23 05:54:57;;;;;;;2.60;2.50;;;;;;;-0.95;100.00;102588.56;4381993;32;20122;-77
2021/11/23 05:57:23;;;;;;;2.53;2.42;;;;;;;-0.96;100.00;102583.38;4386212;32;20072;-76
2021/11/23 05:59:48;;;;;;;2.45;2.35;;;;;;;-0.76;100.00;102607.09;4381472;32;20080;-77
2021/11/23 06:02:14;;;;;;;2.70;2.60;;;;;;;-0.73;100.00;102610.63;4385430;32;20551;-76
2021/11/23 06:04:39;;;;;;;2.60;2.50;;;;;;;-0.69;100.00;102601.25;4383651;32;20065;-76
2021/11/23 06:07:04;;;;;;;5.85;5.55;;;;;;;-0.68;100.00;102603.88;4382462;32;20081;-78
2021/11/23 06:09:30;;;;;;;2.70;2.60;;;;;;;-1.07;100.00;102565.94;4402289;32;20180;-76
2021/11/23 06:11:55;;;;;;;3.53;3.42;;;;;;;-0.71;100.00;102596.06;4377928;32;20126;-76
2021/11/23 06:14:21;;;;;;;2.65;2.55;;;;;;;-0.71;100.00;102597.78;4373153;32;20530;-77
2021/11/23 06:16:47;;;;;;;2.72;2.62;;;;;;;-1.57;100.00;102466.75;4379857;32;20088;-77
2021/11/23 06:19:12;;;;;;;2.87;2.78;;;;;;;-1.50;100.00;102469.53;4374685;32;20836;-77
2021/11/23 06:21:38;;;;;;;2.50;2.40;;;;;;;-0.90;100.00;102573.22;4407788;32;20066;-77
2021/11/23 06:24:04;;;;;;;3.37;3.28;;;;;;;-0.67;100.00;102609.91;4418530;32;20084;-77
2021/11/23 06:26:30;;;;;;;2.60;2.50;;;;;;;-0.65;100.00;102606.53;4397735;32;20096;-76
2021/11/23 06:28:56;;;;;;;3.42;3.33;;;;;;;-0.57;100.00;102608.44;4389106;32;20112;-76
2021/11/23 06:31:21;;;;;;;2.60;2.50;;;;;;;-0.88;100.00;102548.34;4369150;32;20521;-77
2021/11/23 06:33:46;;;;;;;2.33;2.22;;;;;;;-0.50;100.00;102611.19;4383761;32;20079;-78
2021/11/23 06:36:12;;;;;;;2.67;2.58;;;;;;;-1.14;100.00;102498.75;4382968;32;20076;-76
2021/11/23 06:38:37;;;;;;;2.40;2.30;;;;;;;-0.99;100.00;102524.91;4378396;32;20069;-76
2021/11/23 06:41:02;;;;;;;4.05;3.87;;;;;;;-0.75;100.00;102557.28;4383470;32;20065;-77
2021/11/23 06:43:28;;;;;;;2.50;2.40;;;;;;;-0.54;100.00;102606.81;4358399;32;20115;-76
2021/11/23 06:45:55;;;;;;;3.00;2.90;;;;;;;-0.49;100.00;102588.84;4388560;32;20065;-77
2021/11/23 06:48:20;;;;;;;2.92;2.72;;;;;;;-0.50;100.00;102577.69;4363980;32;20084;-75
2021/11/23 06:50:46;;;;;;;2.80;2.70;;;;;;;-1.07;100.00;102482.62;4390098;32;20074;-76
2021/11/23 06:53:11;;;;;;;2.90;2.80;;;;;;;-0.18;100.00;102620.53;4355952;32;20469;-76
2021/11/23 06:55:37;;;;;;;2.67;2.55;;;;;;;-0.21;100.00;102617.03;4387755;32;20064;-77
2021/11/23 06:58:02;;;;;;;4.37;4.18;;;;;;;-2.10;100.00;102305.84;4380730;32;20161;-77
2021/11/23 07:00:28;;;;;;;2.42;2.33;;;;;;;-0.16;100.00;102632.66;4386232;32;20179;-76
2021/11/23 07:02:53;;;;;;;3.22;3.12;;;;;;;-0.20;100.00;102615.34;4383927;32;20235;-78
2021/11/23 07:05:19;;;;;;;2.80;2.70;;;;;;;-0.29;100.00;102603.09;4369517;32;20060;-77
2021/11/23 07:07:44;;;;;;;4.10;3.90;;;;;;;-1.26;100.00;102443.53;4378941;32;20069;-76
2021/11/23 07:10:11;;;;;;;3.50;3.40;;;;;;;-0.17;100.00;102624.88;4370501;32;20246;-75
2021/11/23 07:12:36;;;;;;;2.95;2.85;;;;;;;-0.46;100.00;102574.34;4361937;32;20068;-75
2021/11/23 07:15:03;;;;;;;5.15;4.80;;;;;;;-0.65;100.00;102549.78;4382677;32;20099;-75
2021/11/23 07:17:28;;;;;;;2.65;2.55;;;;;;;-0.07;100.00;102639.72;4380690;32;20085;-77
2021/11/23 07:19:54;;;;;;;4.30;4.10;;;;;;;-0.03;100.00;102650.13;4358819;32;20584;-77
2021/11/23 07:22:19;;;;;;;3.53;3.10;;;;;;;0.05;100.00;102662.38;4367806;32;20103;-78
2021/11/23 07:24:44;;;;;;;3.20;3.10;;;;;;;0.08;100.00;102647.81;4385486;32;20085;-76
2021/11/23 07:27:10;;;;;;;3.33;3.22;;;;;;;0.14;100.00;102640.22;4358230;32;20489;-77
2021/11/23 07:29:35;;;;;;;2.30;2.20;;;;;;;-0.09;100.00;102597.53;4386339;32;20079;-76
2021/11/23 07:32:02;;;;;;;4.18;3.97;;;;;;;0.18;100.00;102662.69;4390508;32;20157;-77
2021/11/23 07:34:27;;;;;;;2.42;2.33;;;;;;;-0.93;100.00;102452.03;4387296;32;20084;-77
2021/11/23 07:36:54;;;;;;;2.70;2.60;;;;;;;0.20;100.00;102647.19;4399394;32;20072;-77
2021/11/23 07:39:19;;;;;;;3.00;2.90;;;;;;;0.23;100.00;102655.03;4380687;32;20986;-76
2021/11/23 07:41:45;;;;;;;2.75;2.65;;;;;;;0.11;100.00;102634.09;4382769;32;20081;-77
2021/11/23 07:44:11;;;;;;;3.28;3.17;;;;;;;0.22;100.00;102655.88;4364912;32;20324;-77
2021/11/23 07:46:36;;;;;;;2.67;2.58;;;;;;;0.08;100.00;102634.03;4383202;32;20207;-77
2021/11/23 07:49:03;;;;;;;4.22;4.03;;;;;;;0.07;100.00;102628.00;4381355;32;20583;-76
2021/11/23 07:51:28;;;;;;;2.60;2.50;;;;;;;-0.23;100.00;102579.16;4364339;32;20681;-77
2021/11/23 07:53:53;;;;;;;5.12;4.82;;;;;;;-0.17;100.00;102575.84;4383632;32;20065;-77
2021/11/23 07:56:20;;;;;;;2.65;2.55;;;;;;;0.46;100.00;102690.81;4367924;32;20131;-77
2021/11/23 07:58:45;;;;;;;3.25;3.15;;;;;;;0.35;100.00;102632.03;4393147;32;20076;-77
2021/11/23 08:01:10;;;;;;;2.60;2.50;;;;;;;0.64;100.00;102660.19;4366720;32;21115;-78
2021/11/23 08:03:36;;;;;;;2.83;2.72;;;;;;;0.72;100.00;102668.09;4382485;32;20072;-76
2021/11/23 08:06:01;;;;;;;3.53;3.42;;;;;;;0.77;100.00;102664.78;4400649;32;20722;-77
2021/11/23 08:08:29;;;;;;;2.65;2.55;;;;;;;0.13;100.00;102565.31;4372090;32;20097;-77
2021/11/23 08:10:54;;;;;;;3.80;3.60;;;;;;;0.63;100.00;102648.13;4384779;32;20086;-78
2021/11/23 08:13:19;;;;;;;2.58;2.47;;;;;;;0.84;100.00;102667.47;4367274;32;20073;-78
2021/11/23 08:15:45;;;;;;;2.80;2.70;;;;;;;0.45;100.00;102602.13;4399690;32;20069;-77
2021/11/23 08:18:10;;;;;;;3.65;3.35;;;;;;;0.97;100.00;102664.31;4377376;32;20073;-76
2021/11/23 08:20:36;;;;;;;2.60;2.50;;;;;;;0.63;100.00;102596.44;4393042;32;20497;-76
2021/11/23 08:23:01;;;;;;;4.35;4.15;;;;;;;0.43;100.00;102553.88;4391179;32;21166;-76
2021/11/23 08:25:27;;;;;;;2.90;2.80;;;;;;;0.87;100.00;102637.41;4394607;32;20445;-77
2021/11/23 08:27:54;;;;;;;3.33;3.22;;;;;;;0.59;100.00;102579.16;4389364;32;20076;-73
2021/11/23 08:30:19;;;;;;;3.12;3.03;;;;;;;1.14;100.00;102667.19;4380394;32;20610;-72
2021/11/23 08:32:45;;;;;;;2.87;2.78;;;;;;;0.09;100.00;102488.63;4382008;32;20073;-75
2021/11/23 08:35:10;;;;;;;2.65;2.55;;;;;;;1.19;100.00;102671.63;4367095;32;20411;-73
2021/11/23 08:37:36;;;;;;;2.97;2.87;;;;;;;1.10;100.00;102676.63;4379696;32;20104;-72
2021/11/23 08:40:02;;;;;;;4.22;4.03;;;;;;;1.13;100.00;102686.16;4381112;32;20111;-70
2021/11/23 08:42:27;;;;;;;2.72;2.62;;;;;;;1.08;100.00;102683.47;4380395;32;20355;-72
2021/11/23 08:44:53;;;;;;;3.90;3.75;;;;;;;1.17;100.00;102686.22;4377539;32;20083;-72
2021/11/23 08:47:18;;;;;;;2.80;2.70;;;;;;;1.28;100.00;102682.97;4381553;32;20619;-73
2021/11/23 08:49:44;;;;;;;2.85;2.75;;;;;;;1.42;100.00;102690.97;4392924;32;20262;-73
2021/11/23 08:52:10;;;;;;;3.55;3.45;;;;;;;1.46;100.00;102659.16;4375429;32;20069;-72
2021/11/23 08:54:35;;;;;;;2.58;2.47;;;;;;;1.64;100.00;102684.47;4367673;32;20625;-73
2021/11/23 08:57:03;;;;;;;4.95;4.75;;;;;;;1.83;100.00;102683.94;4380990;32;20081;-73
2021/11/23 08:59:32;;;;;;;3.28;3.17;;;;;;;1.74;100.00;102647.53;4386831;32;20179;-72
2021/11/23 09:01:57;;;;;;;2.95;2.85;;;;;;;1.96;100.00;102667.72;4382056;32;20077;-72
2021/11/23 09:04:23;;;;;;;2.78;2.67;;;;;;;1.45;99.15;102569.47;4382902;32;20159;-72
2021/11/23 09:06:48;;;;;;;3.30;3.20;;;;;;;0.81;98.25;102471.03;4383515;32;20088;-73
2021/11/23 09:09:14;;;;;;;3.97;3.78;;;;;;;2.15;97.55;102709.47;4382185;32;20080;-73
2021/11/23 09:11:40;;;;;;;2.90;2.80;;;;;;;2.17;97.71;102674.94;4381798;32;20081;-73
2021/11/23 09:14:08;;;;;;;4.65;4.45;;;;;;;2.22;96.93;102685.38;4380705;32;20562;-72
2021/11/23 09:16:34;;;;;;;3.67;3.47;;;;;;;2.28;96.54;102677.69;4384730;32;20073;-72
2021/11/23 09:19:00;;;;;;;4.30;4.10;;;;;;;2.52;96.15;102695.28;4395074;32;20096;-72
2021/11/23 09:21:27;;;;;;;2.97;2.87;;;;;;;2.62;96.31;102691.09;4382242;32;20308;-72
2021/11/23 09:23:53;;;;;;;4.37;3.58;;;;;;;2.69;96.00;102692.94;4389125;32;20092;-75
2021/11/23 09:26:19;;;;;;;3.10;3.00;;;;;;;2.13;95.19;102611.00;4382518;32;20097;-73
2021/11/23 09:28:44;;;;;;;2.70;2.60;;;;;;;2.56;95.14;102691.88;4384333;32;20452;-75
2021/11/23 09:31:09;;;;;;;4.18;3.95;;;;;;;2.65;95.31;102682.53;4365367;32;20082;-73
2021/11/23 09:33:35;;;;;;;3.22;3.12;;;;;;;2.62;95.36;102647.03;4369845;32;20361;-74
2021/11/23 09:36:00;;;;;;;4.15;3.95;;;;;;;3.11;95.77;102680.47;4384534;32;20280;-75
2021/11/23 09:38:26;;;;;;;2.90;2.80;;;;;;;3.19;94.83;102650.28;4367947;32;20073;-73
2021/11/23 09:40:51;;;;;;;3.62;3.47;;;;;;;3.22;93.05;102668.44;4382479;32;20171;-73
2021/11/23 09:43:16;;;;;;;3.10;3.00;;;;;;;3.39;93.14;102672.09;4375365;32;20089;-73
2021/11/23 09:45:42;;;;;;;3.20;3.10;;;;;;;3.48;92.73;102678.22;4380469;32;20595;-73
2021/11/23 09:48:08;;;;;;;4.12;3.92;;;;;;;3.49;92.00;102687.72;4368105;32;20086;-73
2021/11/23 09:50:37;;;;;;;3.55;3.15;;;;;;;3.38;91.24;102677.25;4374681;32;20077;-73
2021/11/23 09:53:03;;;;;;;5.47;5.28;;;;;;;3.29;91.76;102684.97;4372202;32;20094;-73
2021/11/23 09:55:28;;;;;;;3.35;3.25;;;;;;;3.07;92.40;102639.78;4383679;32;20135;-74
2021/11/23 09:57:53;;;;;;;3.72;3.58;;;;;;;2.54;92.91;102565.72;4378893;32;20091;-75
2021/11/23 10:00:30;;;;;;;3.40;3.30;;;;;;;1.97;93.22;102444.22;4381723;32;20084;-75
2021/11/23 10:03:23;;;;;;;4.62;4.43;;;;;;;3.27;93.78;102650.31;4379325;32;20066;-74
2021/11/23 10:05:51;;;;;;;3.25;3.12;;;;;;;3.56;93.88;102680.03;4377057;32;20073;-74
2021/11/23 10:08:17;;;;;;;3.00;2.90;;;;;;;3.62;93.46;102680.94;4368703;32;20216;-74
2021/11/23 10:10:50;;;;;;;3.25;3.15;;;;;;;3.56;93.34;102677.41;4392318;32;20095;-73
2021/11/23 10:13:16;;;;;;;3.40;3.30;;;;;;;3.36;93.09;102666.84;4386826;32;20076;-73
2021/11/23 10:15:45;;;;;;;3.37;3.28;;;;;;;3.37;93.25;102683.31;4393991;32;20190;-73
2021/11/23 10:18:24;;;;;;;4.25;4.05;;;;;;;3.39;93.65;102676.41;4362688;32;20337;-73
2021/11/23 10:20:59;;;;;;;2.97;2.87;;;;;;;3.39;93.53;102679.88;4384078;32;20445;-77
2021/11/23 10:23:26;;;;;;;3.00;2.90;;;;;;;3.29;93.99;102648.66;4381053;32;20463;-73
2021/11/23 10:25:54;;;;;;;3.62;3.47;;;;;;;3.40;94.01;102650.47;4395837;32;20091;-73
2021/11/23 10:28:21;;;;;;;3.10;3.00;;;;;;;3.34;93.65;102640.03;4368704;32;20111;-74
2021/11/23 10:30:48;;;;;;;3.10;3.00;;;;;;;3.66;93.55;102674.91;4378782;32;20080;-74
2021/11/23 10:33:14;;;;;;;3.37;3.28;;;;;;;3.88;93.53;102678.56;4364663;32;21312;-74
2021/11/23 10:35:41;;;;;;;2.97;2.87;;;;;;;3.93;92.89;102676.84;4396539;32;20099;-74
2021/11/23 10:38:08;;;;;;;3.40;3.20;;;;;;;3.95;92.57;102676.03;4378377;32;20817;-74
2021/11/23 10:40:34;;;;;;;3.45;3.35;;;;;;;3.83;92.23;102683.72;4383088;32;20655;-75
2021/11/23 10:43:01;;;;;;;4.78;4.57;;;;;;;3.59;92.41;102679.19;4377291;32;20131;-75
2021/11/23 10:45:35;;;;;;;4.72;3.95;;;;;;;2.99;93.25;102609.44;4369174;32;20077;-76
2021/11/23 10:48:02;;;;;;;5.30;5.05;;;;;;;3.52;94.00;102683.44;4374153;32;20073;-74
2021/11/23 10:50:27;;;;;;;3.30;3.20;;;;;;;3.58;94.42;102665.31;4395913;32;20313;-76
2021/11/23 10:52:52;;;;;;;3.17;3.08;;;;;;;3.75;94.82;102675.00;4375746;32;20134;-76
2021/11/23 10:55:20;;;;;;;4.43;3.95;;;;;;;3.77;94.42;102675.88;4367996;32;20077;-73
2021/11/23 10:57:46;;;;;;;3.20;3.10;;;;;;;2.34;94.58;102444.59;4408292;32;20384;-74
2021/11/23 11:00:12;;;;;;;3.55;3.45;;;;;;;3.79;95.12;102679.38;4378034;32;20655;-74
2021/11/23 11:02:38;;;;;;;3.40;3.30;;;;;;;3.80;95.34;102668.97;4370520;32;20666;-74
2021/11/23 11:05:08;;;;;;;3.20;3.10;;;;;;;3.43;95.72;102607.22;4400255;32;20170;-74
2021/11/23 11:07:33;;;;;;;3.12;3.03;;;;;;;3.14;95.55;102550.75;4398331;32;20085;-74
2021/11/23 11:09:59;;;;;;;4.53;4.32;;;;;;;3.83;95.70;102667.25;4391296;32;20080;-74
2021/11/23 11:12:24;;;;;;;3.70;3.40;;;;;;;3.87;95.95;102666.41;4364293;32;20401;-73
2021/11/23 11:14:50;;;;;;;3.45;3.35;;;;;;;3.92;96.06;102662.12;4382763;32;20108;-77